Terminal Aerodrome Forecast
Issued by NWS

Home | Current Version | Previous Version | Text Only | Print | Product List | Glossary On
Versions: 1 2 3 4 5 6 7 8 9 10 11 12 13 14 15 16 17
000
FTUS43 KGRR 251126
TAFJXN
TAF
KJXN 251126Z 2512/2612 02007KT 1 1/2SM -RA BR VCSH OVC003
     FM251500 35007KT 5SM BR VCSH OVC009
     FM252200 33006KT 6SM HZ OVC015
     FM260400 29004KT P6SM OVC004
     FM260900 30004KT 1 1/2SM BR OVC003=

USA.gov is the U.S. government's official web portal to all federal, state and local government web resources and services.